Castle Douglas, United Kingdom
Current Conditions -  °F | °C
As of 3:50 PM on Friday 24 Oct 2014 (Local Time) from EGNC Reporting Station
Rain Showers Rain Showers  
Wind Chill: 10°   Ceiling: 3800
Heat Index: 10°   Visibility: 6mi
Dew Point:   Wind: 13mph
Humidity: 87%   Direction: 230°SW
Pressure: 29.8"   Gusts: 25mph
Location:  54.94°N, 3.93°W
Report Text: EGNC 241450Z 23011G22KT 9999 VCSH FEW018 SCT028 BKN038 10/08 Q1009
Loading
Personal Weather Stations






























Interactive Weather Map
Tropical Storm Tracking
New forecast layout! Learn more

10-Day Weather Forecast

Advertisements
Track Severe Weather on mobile